sensor_id;sensor_type;location;lat;lon;timestamp;temperature;humidity
13944;DHT22;7044;53.286;8.534;2024-02-23T00:02:13;8.60;99.90
13944;DHT22;7044;53.286;8.534;2024-02-23T00:04:39;8.50;99.90
13944;DHT22;7044;53.286;8.534;2024-02-23T00:07:07;8.50;99.90
13944;DHT22;7044;53.286;8.534;2024-02-23T00:09:35;8.40;99.90
13944;DHT22;7044;53.286;8.534;2024-02-23T00:12:02;8.40;99.90
13944;DHT22;7044;53.286;8.534;2024-02-23T00:14:29;8.30;99.90
13944;DHT22;7044;53.286;8.534;2024-02-23T00:16:57;8.30;99.90
13944;DHT22;7044;53.286;8.534;2024-02-23T00:19:24;8.30;99.90
13944;DHT22;7044;53.286;8.534;2024-02-23T00:21:51;8.10;99.90
13944;DHT22;7044;53.286;8.534;2024-02-23T00:24:18;8.20;99.90
13944;DHT22;7044;53.286;8.534;2024-02-23T00:26:48;8.10;99.90
13944;DHT22;7044;53.286;8.534;2024-02-23T00:29:16;8.10;99.90
13944;DHT22;7044;53.286;8.534;2024-02-23T00:31:43;8.10;99.90
13944;DHT22;7044;53.286;8.534;2024-02-23T00:34:11;8.00;99.90
13944;DHT22;7044;53.286;8.534;2024-02-23T00:36:39;7.90;99.90
13944;DHT22;7044;53.286;8.534;2024-02-23T00:39:06;7.80;99.90
13944;DHT22;7044;53.286;8.534;2024-02-23T00:41:33;7.80;99.90
13944;DHT22;7044;53.286;8.534;2024-02-23T00:44:01;7.80;99.90
13944;DHT22;7044;53.286;8.534;2024-02-23T00:46:28;7.80;99.90
13944;DHT22;7044;53.286;8.534;2024-02-23T00:48:54;7.80;99.90
13944;DHT22;7044;53.286;8.534;2024-02-23T00:51:21;7.10;99.90
13944;DHT22;7044;53.286;8.534;2024-02-23T00:53:48;7.70;99.90
13944;DHT22;7044;53.286;8.534;2024-02-23T00:56:15;7.70;99.90
13944;DHT22;7044;53.286;8.534;2024-02-23T00:58:42;7.60;99.90
13944;DHT22;7044;53.286;8.534;2024-02-23T01:01:10;7.60;99.90
13944;DHT22;7044;53.286;8.534;2024-02-23T01:06:04;7.40;99.90
13944;DHT22;7044;53.286;8.534;2024-02-23T01:08:31;7.40;99.90
13944;DHT22;7044;53.286;8.534;2024-02-23T01:10:58;7.40;99.90
13944;DHT22;7044;53.286;8.534;2024-02-23T01:13:25;7.40;99.90
13944;DHT22;7044;53.286;8.534;2024-02-23T01:15:52;7.40;99.90
13944;DHT22;7044;53.286;8.534;2024-02-23T01:18:20;7.30;99.90
13944;DHT22;7044;53.286;8.534;2024-02-23T01:20:47;7.30;99.90
13944;DHT22;7044;53.286;8.534;2024-02-23T01:23:14;7.10;99.90
13944;DHT22;7044;53.286;8.534;2024-02-23T01:25:41;7.20;99.90
13944;DHT22;7044;53.286;8.534;2024-02-23T01:28:08;7.10;99.90
13944;DHT22;7044;53.286;8.534;2024-02-23T01:30:35;7.10;99.90
13944;DHT22;7044;53.286;8.534;2024-02-23T01:33:02;7.00;99.90
13944;DHT22;7044;53.286;8.534;2024-02-23T01:35:30;6.90;99.90
13944;DHT22;7044;53.286;8.534;2024-02-23T01:37:57;6.90;99.90
13944;DHT22;7044;53.286;8.534;2024-02-23T01:40:24;6.90;99.90
13944;DHT22;7044;53.286;8.534;2024-02-23T01:43:01;6.90;99.90
13944;DHT22;7044;53.286;8.534;2024-02-23T01:45:29;6.90;99.90
13944;DHT22;7044;53.286;8.534;2024-02-23T01:47:56;6.90;99.90
13944;DHT22;7044;53.286;8.534;2024-02-23T01:50:23;6.80;99.90
13944;DHT22;7044;53.286;8.534;2024-02-23T01:52:52;6.30;99.90
13944;DHT22;7044;53.286;8.534;2024-02-23T01:55:20;6.80;99.90
13944;DHT22;7044;53.286;8.534;2024-02-23T01:57:47;6.80;99.90
13944;DHT22;7044;53.286;8.534;2024-02-23T02:00:17;6.80;99.90
13944;DHT22;7044;53.286;8.534;2024-02-23T02:02:44;6.80;99.90
13944;DHT22;7044;53.286;8.534;2024-02-23T02:05:12;6.80;99.90
13944;DHT22;7044;53.286;8.534;2024-02-23T02:07:40;7.00;99.90
13944;DHT22;7044;53.286;8.534;2024-02-23T02:10:09;6.80;99.90
13944;DHT22;7044;53.286;8.534;2024-02-23T02:12:36;6.70;99.90
13944;DHT22;7044;53.286;8.534;2024-02-23T02:15:04;6.80;99.90
13944;DHT22;7044;53.286;8.534;2024-02-23T02:17:31;6.80;99.90
13944;DHT22;7044;53.286;8.534;2024-02-23T02:19:59;6.80;99.90
13944;DHT22;7044;53.286;8.534;2024-02-23T02:22:31;6.80;99.90
13944;DHT22;7044;53.286;8.534;2024-02-23T02:24:58;6.70;99.90
13944;DHT22;7044;53.286;8.534;2024-02-23T02:27:26;6.70;99.90
13944;DHT22;7044;53.286;8.534;2024-02-23T02:29:53;6.70;99.90
13944;DHT22;7044;53.286;8.534;2024-02-23T02:32:20;6.60;99.90
13944;DHT22;7044;53.286;8.534;2024-02-23T02:34:47;6.60;99.90
13944;DHT22;7044;53.286;8.534;2024-02-23T02:37:14;6.50;99.90
13944;DHT22;7044;53.286;8.534;2024-02-23T02:39:41;6.40;99.90
13944;DHT22;7044;53.286;8.534;2024-02-23T02:42:08;6.30;99.90
13944;DHT22;7044;53.286;8.534;2024-02-23T02:44:36;6.20;99.90
13944;DHT22;7044;53.286;8.534;2024-02-23T02:47:03;6.20;99.90
13944;DHT22;7044;53.286;8.534;2024-02-23T02:49:30;6.10;99.90
13944;DHT22;7044;53.286;8.534;2024-02-23T02:51:57;6.20;99.90
13944;DHT22;7044;53.286;8.534;2024-02-23T02:54:24;6.10;99.90
13944;DHT22;7044;53.286;8.534;2024-02-23T02:56:51;6.10;99.90
13944;DHT22;7044;53.286;8.534;2024-02-23T02:59:19;6.10;99.90
13944;DHT22;7044;53.286;8.534;2024-02-23T03:01:48;6.10;99.90
13944;DHT22;7044;53.286;8.534;2024-02-23T03:04:15;6.20;99.90
13944;DHT22;7044;53.286;8.534;2024-02-23T03:06:42;6.10;99.90
13944;DHT22;7044;53.286;8.534;2024-02-23T03:09:09;6.20;99.90
13944;DHT22;7044;53.286;8.534;2024-02-23T03:11:36;6.20;99.90
13944;DHT22;7044;53.286;8.534;2024-02-23T03:14:03;6.20;99.90
13944;DHT22;7044;53.286;8.534;2024-02-23T03:16:30;6.20;99.90
13944;DHT22;7044;53.286;8.534;2024-02-23T03:18:58;6.20;99.90
13944;DHT22;7044;53.286;8.534;2024-02-23T03:21:25;6.20;99.90
13944;DHT22;7044;53.286;8.534;2024-02-23T03:23:52;6.20;99.90
13944;DHT22;7044;53.286;8.534;2024-02-23T03:26:19;6.20;99.90
13944;DHT22;7044;53.286;8.534;2024-02-23T03:28:46;5.60;99.90
13944;DHT22;7044;53.286;8.534;2024-02-23T03:31:14;6.30;99.90
13944;DHT22;7044;53.286;8.534;2024-02-23T03:33:41;6.30;99.90
13944;DHT22;7044;53.286;8.534;2024-02-23T03:36:09;6.30;99.90
13944;DHT22;7044;53.286;8.534;2024-02-23T03:38:36;6.40;99.90
13944;DHT22;7044;53.286;8.534;2024-02-23T03:41:03;6.40;99.90
13944;DHT22;7044;53.286;8.534;2024-02-23T03:43:30;6.40;99.90
13944;DHT22;7044;53.286;8.534;2024-02-23T03:45:57;6.40;99.90
13944;DHT22;7044;53.286;8.534;2024-02-23T03:48:24;6.50;99.90
13944;DHT22;7044;53.286;8.534;2024-02-23T03:50:51;6.30;99.90
13944;DHT22;7044;53.286;8.534;2024-02-23T03:53:21;6.40;99.90
13944;DHT22;7044;53.286;8.534;2024-02-23T03:55:48;6.40;99.90
13944;DHT22;7044;53.286;8.534;2024-02-23T03:58:15;6.30;99.90
13944;DHT22;7044;53.286;8.534;2024-02-23T04:00:43;9.10;99.90
13944;DHT22;7044;53.286;8.534;2024-02-23T04:03:10;6.40;99.90
13944;DHT22;7044;53.286;8.534;2024-02-23T04:05:37;6.30;99.90
13944;DHT22;7044;53.286;8.534;2024-02-23T04:08:04;6.40;99.90
13944;DHT22;7044;53.286;8.534;2024-02-23T04:10:33;6.50;99.90
13944;DHT22;7044;53.286;8.534;2024-02-23T04:13:00;6.50;99.90
13944;DHT22;7044;53.286;8.534;2024-02-23T04:15:27;6.50;99.90
13944;DHT22;7044;53.286;8.534;2024-02-23T04:17:54;6.10;99.90
13944;DHT22;7044;53.286;8.534;2024-02-23T04:20:21;6.60;99.90
13944;DHT22;7044;53.286;8.534;2024-02-23T04:22:48;6.60;99.90
13944;DHT22;7044;53.286;8.534;2024-02-23T04:25:15;6.60;99.90
13944;DHT22;7044;53.286;8.534;2024-02-23T04:27:43;6.60;99.90
13944;DHT22;7044;53.286;8.534;2024-02-23T04:30:11;6.60;99.90
13944;DHT22;7044;53.286;8.534;2024-02-23T04:32:38;6.60;99.90
13944;DHT22;7044;53.286;8.534;2024-02-23T04:35:06;6.60;99.90
13944;DHT22;7044;53.286;8.534;2024-02-23T04:37:33;6.60;99.90
13944;DHT22;7044;53.286;8.534;2024-02-23T04:40:00;6.50;99.90
13944;DHT22;7044;53.286;8.534;2024-02-23T04:42:27;6.50;99.90
13944;DHT22;7044;53.286;8.534;2024-02-23T04:44:55;6.40;99.90
13944;DHT22;7044;53.286;8.534;2024-02-23T04:47:22;6.40;99.90
13944;DHT22;7044;53.286;8.534;2024-02-23T04:49:49;6.20;99.90
13944;DHT22;7044;53.286;8.534;2024-02-23T04:52:16;6.30;99.90
13944;DHT22;7044;53.286;8.534;2024-02-23T04:54:43;6.20;99.90
13944;DHT22;7044;53.286;8.534;2024-02-23T04:57:10;6.10;99.90
13944;DHT22;7044;53.286;8.534;2024-02-23T04:59:36;6.10;99.90
13944;DHT22;7044;53.286;8.534;2024-02-23T05:02:05;6.10;99.90
13944;DHT22;7044;53.286;8.534;2024-02-23T05:04:32;6.10;99.90
13944;DHT22;7044;53.286;8.534;2024-02-23T05:06:58;6.10;99.90
13944;DHT22;7044;53.286;8.534;2024-02-23T05:09:27;6.00;99.90
13944;DHT22;7044;53.286;8.534;2024-02-23T05:11:54;6.00;99.90
13944;DHT22;7044;53.286;8.534;2024-02-23T05:14:21;6.10;99.90
13944;DHT22;7044;53.286;8.534;2024-02-23T05:16:48;6.00;99.90
13944;DHT22;7044;53.286;8.534;2024-02-23T05:19:15;6.00;99.90
13944;DHT22;7044;53.286;8.534;2024-02-23T05:21:42;6.40;99.90
13944;DHT22;7044;53.286;8.534;2024-02-23T05:24:11;6.00;99.90
13944;DHT22;7044;53.286;8.534;2024-02-23T05:26:38;6.10;99.90
13944;DHT22;7044;53.286;8.534;2024-02-23T05:29:05;6.00;99.90
13944;DHT22;7044;53.286;8.534;2024-02-23T05:31:46;6.30;99.90
13944;DHT22;7044;53.286;8.534;2024-02-23T05:34:15;6.00;99.90
13944;DHT22;7044;53.286;8.534;2024-02-23T05:36:42;6.00;99.90
13944;DHT22;7044;53.286;8.534;2024-02-23T05:39:09;6.00;99.90
13944;DHT22;7044;53.286;8.534;2024-02-23T05:44:04;6.10;99.90
13944;DHT22;7044;53.286;8.534;2024-02-23T05:46:32;6.00;99.90
13944;DHT22;7044;53.286;8.534;2024-02-23T05:48:59;6.00;99.90
13944;DHT22;7044;53.286;8.534;2024-02-23T05:51:28;6.80;99.90
13944;DHT22;7044;53.286;8.534;2024-02-23T05:53:55;6.00;99.90
13944;DHT22;7044;53.286;8.534;2024-02-23T05:56:23;5.90;99.90
13944;DHT22;7044;53.286;8.534;2024-02-23T05:58:50;6.00;99.90
13944;DHT22;7044;53.286;8.534;2024-02-23T06:01:17;6.00;99.90
13944;DHT22;7044;53.286;8.534;2024-02-23T06:03:44;6.00;99.90
13944;DHT22;7044;53.286;8.534;2024-02-23T06:06:11;6.40;99.90
13944;DHT22;7044;53.286;8.534;2024-02-23T06:08:39;6.00;99.90
13944;DHT22;7044;53.286;8.534;2024-02-23T06:11:06;6.30;99.90
13944;DHT22;7044;53.286;8.534;2024-02-23T06:13:35;6.20;99.90
13944;DHT22;7044;53.286;8.534;2024-02-23T06:16:03;6.10;99.90
13944;DHT22;7044;53.286;8.534;2024-02-23T06:18:30;6.10;99.90
13944;DHT22;7044;53.286;8.534;2024-02-23T06:20:56;6.10;99.90
13944;DHT22;7044;53.286;8.534;2024-02-23T06:23:23;6.00;99.90
13944;DHT22;7044;53.286;8.534;2024-02-23T06:25:51;6.00;99.90
13944;DHT22;7044;53.286;8.534;2024-02-23T06:28:18;6.00;99.90
13944;DHT22;7044;53.286;8.534;2024-02-23T06:30:45;6.00;99.90
13944;DHT22;7044;53.286;8.534;2024-02-23T06:33:12;6.00;99.90
13944;DHT22;7044;53.286;8.534;2024-02-23T06:35:39;5.90;99.90
13944;DHT22;7044;53.286;8.534;2024-02-23T06:38:06;7.70;99.90
13944;DHT22;7044;53.286;8.534;2024-02-23T06:40:33;5.90;99.90
13944;DHT22;7044;53.286;8.534;2024-02-23T06:43:01;6.20;99.90
13944;DHT22;7044;53.286;8.534;2024-02-23T06:45:28;5.90;99.90
13944;DHT22;7044;53.286;8.534;2024-02-23T06:47:55;5.90;99.90
13944;DHT22;7044;53.286;8.534;2024-02-23T06:50:21;5.90;99.90
13944;DHT22;7044;53.286;8.534;2024-02-23T06:52:48;5.90;99.90
13944;DHT22;7044;53.286;8.534;2024-02-23T06:55:15;5.90;99.90
13944;DHT22;7044;53.286;8.534;2024-02-23T06:57:43;6.00;99.90
13944;DHT22;7044;53.286;8.534;2024-02-23T07:00:12;5.90;99.90
13944;DHT22;7044;53.286;8.534;2024-02-23T07:02:39;6.00;99.90
13944;DHT22;7044;53.286;8.534;2024-02-23T07:05:06;6.10;99.90
13944;DHT22;7044;53.286;8.534;2024-02-23T07:07:34;6.10;99.90
13944;DHT22;7044;53.286;8.534;2024-02-23T07:10:02;6.00;99.90
13944;DHT22;7044;53.286;8.534;2024-02-23T07:12:29;6.10;99.90
13944;DHT22;7044;53.286;8.534;2024-02-23T07:14:56;6.10;99.90
13944;DHT22;7044;53.286;8.534;2024-02-23T07:17:24;6.10;99.90
13944;DHT22;7044;53.286;8.534;2024-02-23T07:19:51;6.10;99.90
13944;DHT22;7044;53.286;8.534;2024-02-23T07:22:18;6.20;99.90
13944;DHT22;7044;53.286;8.534;2024-02-23T07:24:45;6.30;99.90
13944;DHT22;7044;53.286;8.534;2024-02-23T07:27:12;6.30;99.90
13944;DHT22;7044;53.286;8.534;2024-02-23T07:29:39;6.30;99.90
13944;DHT22;7044;53.286;8.534;2024-02-23T07:32:06;6.30;99.90
13944;DHT22;7044;53.286;8.534;2024-02-23T07:34:35;6.60;99.90
13944;DHT22;7044;53.286;8.534;2024-02-23T07:37:01;6.50;99.90
13944;DHT22;7044;53.286;8.534;2024-02-23T07:39:29;6.40;99.90
13944;DHT22;7044;53.286;8.534;2024-02-23T07:41:56;7.30;99.90
13944;DHT22;7044;53.286;8.534;2024-02-23T07:44:23;6.40;99.90
13944;DHT22;7044;53.286;8.534;2024-02-23T07:46:51;6.40;99.90
13944;DHT22;7044;53.286;8.534;2024-02-23T07:49:18;6.40;99.90
13944;DHT22;7044;53.286;8.534;2024-02-23T07:51:47;6.40;99.90
13944;DHT22;7044;53.286;8.534;2024-02-23T07:54:14;6.40;99.90
13944;DHT22;7044;53.286;8.534;2024-02-23T07:56:41;6.70;99.90
13944;DHT22;7044;53.286;8.534;2024-02-23T07:59:08;6.40;99.90
13944;DHT22;7044;53.286;8.534;2024-02-23T08:01:34;6.40;99.90
13944;DHT22;7044;53.286;8.534;2024-02-23T08:04:01;6.50;99.90
13944;DHT22;7044;53.286;8.534;2024-02-23T08:06:28;6.50;99.90
13944;DHT22;7044;53.286;8.534;2024-02-23T08:08:57;6.50;99.90
13944;DHT22;7044;53.286;8.534;2024-02-23T08:11:23;6.60;99.90
13944;DHT22;7044;53.286;8.534;2024-02-23T08:13:50;6.80;99.90
13944;DHT22;7044;53.286;8.534;2024-02-23T08:16:17;6.60;99.90
13944;DHT22;7044;53.286;8.534;2024-02-23T08:18:44;6.70;99.90
13944;DHT22;7044;53.286;8.534;2024-02-23T08:21:11;6.70;99.90
13944;DHT22;7044;53.286;8.534;2024-02-23T08:23:38;6.70;99.90
13944;DHT22;7044;53.286;8.534;2024-02-23T08:26:06;6.50;99.90
13944;DHT22;7044;53.286;8.534;2024-02-23T08:28:35;7.10;99.90
13944;DHT22;7044;53.286;8.534;2024-02-23T08:31:02;6.80;99.90
13944;DHT22;7044;53.286;8.534;2024-02-23T08:33:30;6.70;99.90
13944;DHT22;7044;53.286;8.534;2024-02-23T08:35:57;6.90;99.90
13944;DHT22;7044;53.286;8.534;2024-02-23T08:38:24;6.90;99.90
13944;DHT22;7044;53.286;8.534;2024-02-23T08:40:51;7.00;99.90
13944;DHT22;7044;53.286;8.534;2024-02-23T08:43:19;6.90;99.90
13944;DHT22;7044;53.286;8.534;2024-02-23T08:45:46;7.00;99.90
13944;DHT22;7044;53.286;8.534;2024-02-23T08:48:14;7.00;99.90
13944;DHT22;7044;53.286;8.534;2024-02-23T08:50:41;7.00;99.90
13944;DHT22;7044;53.286;8.534;2024-02-23T08:53:08;7.30;99.90
13944;DHT22;7044;53.286;8.534;2024-02-23T08:55:35;7.30;99.90
13944;DHT22;7044;53.286;8.534;2024-02-23T08:58:02;7.30;99.90
13944;DHT22;7044;53.286;8.534;2024-02-23T09:00:32;7.40;99.90
13944;DHT22;7044;53.286;8.534;2024-02-23T09:02:59;7.30;99.90
13944;DHT22;7044;53.286;8.534;2024-02-23T09:05:26;7.30;99.90
13944;DHT22;7044;53.286;8.534;2024-02-23T09:07:53;7.30;99.90
13944;DHT22;7044;53.286;8.534;2024-02-23T09:10:20;7.50;99.90
13944;DHT22;7044;53.286;8.534;2024-02-23T09:12:47;8.00;99.90
13944;DHT22;7044;53.286;8.534;2024-02-23T09:15:14;7.90;99.90
13944;DHT22;7044;53.286;8.534;2024-02-23T09:17:42;7.50;99.90
13944;DHT22;7044;53.286;8.534;2024-02-23T09:20:11;7.70;99.90
13944;DHT22;7044;53.286;8.534;2024-02-23T09:22:38;7.60;99.90
13944;DHT22;7044;53.286;8.534;2024-02-23T09:25:06;7.60;99.90
13944;DHT22;7044;53.286;8.534;2024-02-23T09:27:34;7.60;99.90
13944;DHT22;7044;53.286;8.534;2024-02-23T09:30:02;8.20;99.90
13944;DHT22;7044;53.286;8.534;2024-02-23T09:32:29;7.60;99.90
13944;DHT22;7044;53.286;8.534;2024-02-23T09:34:57;7.60;99.90
13944;DHT22;7044;53.286;8.534;2024-02-23T09:37:24;7.60;99.90
13944;DHT22;7044;53.286;8.534;2024-02-23T09:39:51;7.70;99.90
13944;DHT22;7044;53.286;8.534;2024-02-23T09:42:19;7.60;99.90
13944;DHT22;7044;53.286;8.534;2024-02-23T09:44:52;7.60;99.90
13944;DHT22;7044;53.286;8.534;2024-02-23T09:47:20;7.70;99.90
13944;DHT22;7044;53.286;8.534;2024-02-23T09:49:48;7.60;99.90
13944;DHT22;7044;53.286;8.534;2024-02-23T09:52:19;7.70;99.90
13944;DHT22;7044;53.286;8.534;2024-02-23T09:54:47;7.60;99.90
13944;DHT22;7044;53.286;8.534;2024-02-23T09:57:15;7.60;99.90
13944;DHT22;7044;53.286;8.534;2024-02-23T09:59:42;7.70;99.90
13944;DHT22;7044;53.286;8.534;2024-02-23T10:02:11;7.70;99.90
13944;DHT22;7044;53.286;8.534;2024-02-23T10:04:42;7.70;99.90
13944;DHT22;7044;53.286;8.534;2024-02-23T10:07:09;7.70;99.90
13944;DHT22;7044;53.286;8.534;2024-02-23T10:09:37;7.80;99.90
13944;DHT22;7044;53.286;8.534;2024-02-23T10:12:06;7.90;99.90
13944;DHT22;7044;53.286;8.534;2024-02-23T10:14:33;7.80;99.90
13944;DHT22;7044;53.286;8.534;2024-02-23T10:17:00;7.80;99.90
13944;DHT22;7044;53.286;8.534;2024-02-23T10:19:27;7.80;99.90
13944;DHT22;7044;53.286;8.534;2024-02-23T10:21:55;7.90;99.90
13944;DHT22;7044;53.286;8.534;2024-02-23T10:24:23;7.80;99.90
13944;DHT22;7044;53.286;8.534;2024-02-23T10:26:52;7.90;99.90
13944;DHT22;7044;53.286;8.534;2024-02-23T10:29:19;7.80;99.90
13944;DHT22;7044;53.286;8.534;2024-02-23T10:31:47;7.90;99.90
13944;DHT22;7044;53.286;8.534;2024-02-23T10:34:18;7.90;99.90
13944;DHT22;7044;53.286;8.534;2024-02-23T10:36:46;8.00;99.90
13944;DHT22;7044;53.286;8.534;2024-02-23T10:39:16;8.50;99.90
13944;DHT22;7044;53.286;8.534;2024-02-23T10:41:47;8.00;99.90
13944;DHT22;7044;53.286;8.534;2024-02-23T10:44:16;8.00;99.90
13944;DHT22;7044;53.286;8.534;2024-02-23T10:46:44;8.00;99.90
13944;DHT22;7044;53.286;8.534;2024-02-23T10:49:15;8.00;99.90
13944;DHT22;7044;53.286;8.534;2024-02-23T10:51:43;8.00;99.90
13944;DHT22;7044;53.286;8.534;2024-02-23T10:54:13;8.00;99.90
13944;DHT22;7044;53.286;8.534;2024-02-23T10:56:40;8.00;99.90
13944;DHT22;7044;53.286;8.534;2024-02-23T10:59:08;8.00;99.90
13944;DHT22;7044;53.286;8.534;2024-02-23T11:01:37;8.10;99.90
13944;DHT22;7044;53.286;8.534;2024-02-23T11:04:06;8.10;99.90
13944;DHT22;7044;53.286;8.534;2024-02-23T11:06:34;8.10;99.90
13944;DHT22;7044;53.286;8.534;2024-02-23T11:09:12;8.10;99.90
13944;DHT22;7044;53.286;8.534;2024-02-23T11:11:39;8.10;99.90
13944;DHT22;7044;53.286;8.534;2024-02-23T11:14:08;8.00;99.90
13944;DHT22;7044;53.286;8.534;2024-02-23T11:16:40;8.10;99.90
13944;DHT22;7044;53.286;8.534;2024-02-23T11:19:10;8.10;99.90
13944;DHT22;7044;53.286;8.534;2024-02-23T11:21:37;8.20;99.90
13944;DHT22;7044;53.286;8.534;2024-02-23T11:24:05;8.20;99.90
13944;DHT22;7044;53.286;8.534;2024-02-23T11:26:32;8.20;99.90
13944;DHT22;7044;53.286;8.534;2024-02-23T11:29:10;8.30;99.90
13944;DHT22;7044;53.286;8.534;2024-02-23T11:31:45;8.30;99.90
13944;DHT22;7044;53.286;8.534;2024-02-23T11:34:12;8.30;99.90
13944;DHT22;7044;53.286;8.534;2024-02-23T11:36:39;8.30;99.90
13944;DHT22;7044;53.286;8.534;2024-02-23T11:39:06;8.30;99.90
13944;DHT22;7044;53.286;8.534;2024-02-23T11:41:37;8.30;99.90
13944;DHT22;7044;53.286;8.534;2024-02-23T11:44:04;8.40;99.90
13944;DHT22;7044;53.286;8.534;2024-02-23T11:46:32;8.30;99.90
13944;DHT22;7044;53.286;8.534;2024-02-23T11:49:01;8.40;99.90
13944;DHT22;7044;53.286;8.534;2024-02-23T11:51:28;8.40;99.90
13944;DHT22;7044;53.286;8.534;2024-02-23T11:53:56;8.30;99.90
13944;DHT22;7044;53.286;8.534;2024-02-23T11:56:26;8.70;99.90
13944;DHT22;7044;53.286;8.534;2024-02-23T11:58:53;8.30;99.90
13944;DHT22;7044;53.286;8.534;2024-02-23T12:01:21;8.30;99.90
13944;DHT22;7044;53.286;8.534;2024-02-23T12:03:47;8.60;99.90
13944;DHT22;7044;53.286;8.534;2024-02-23T12:06:16;8.50;99.90
13944;DHT22;7044;53.286;8.534;2024-02-23T12:08:44;8.50;99.90
13944;DHT22;7044;53.286;8.534;2024-02-23T12:11:12;8.40;99.90
13944;DHT22;7044;53.286;8.534;2024-02-23T12:13:39;8.30;99.90
13944;DHT22;7044;53.286;8.534;2024-02-23T12:16:07;8.30;99.90
13944;DHT22;7044;53.286;8.534;2024-02-23T12:18:34;8.30;99.90
13944;DHT22;7044;53.286;8.534;2024-02-23T12:21:02;8.20;99.90
13944;DHT22;7044;53.286;8.534;2024-02-23T12:23:39;8.20;99.90
13944;DHT22;7044;53.286;8.534;2024-02-23T12:26:06;8.20;99.90
13944;DHT22;7044;53.286;8.534;2024-02-23T12:28:33;8.10;99.90
13944;DHT22;7044;53.286;8.534;2024-02-23T12:31:01;8.10;99.90
13944;DHT22;7044;53.286;8.534;2024-02-23T12:33:28;8.10;99.90
13944;DHT22;7044;53.286;8.534;2024-02-23T12:35:56;8.10;99.90
13944;DHT22;7044;53.286;8.534;2024-02-23T12:38:23;8.20;99.90
13944;DHT22;7044;53.286;8.534;2024-02-23T12:40:51;8.20;99.90
13944;DHT22;7044;53.286;8.534;2024-02-23T12:43:18;8.10;99.90
13944;DHT22;7044;53.286;8.534;2024-02-23T12:45:47;8.20;99.90
13944;DHT22;7044;53.286;8.534;2024-02-23T12:48:16;8.50;99.90
13944;DHT22;7044;53.286;8.534;2024-02-23T12:50:43;8.50;99.90
13944;DHT22;7044;53.286;8.534;2024-02-23T12:53:11;8.50;99.90
13944;DHT22;7044;53.286;8.534;2024-02-23T12:55:57;8.50;99.90
13944;DHT22;7044;53.286;8.534;2024-02-23T12:58:24;8.50;99.90
13944;DHT22;7044;53.286;8.534;2024-02-23T13:00:51;8.60;99.90
13944;DHT22;7044;53.286;8.534;2024-02-23T13:03:18;8.80;99.90
13944;DHT22;7044;53.286;8.534;2024-02-23T13:05:45;8.80;99.90
13944;DHT22;7044;53.286;8.534;2024-02-23T13:08:12;9.20;99.90
13944;DHT22;7044;53.286;8.534;2024-02-23T13:10:39;8.90;99.90
13944;DHT22;7044;53.286;8.534;2024-02-23T13:13:08;8.90;99.90
13944;DHT22;7044;53.286;8.534;2024-02-23T13:15:34;8.90;99.90
13944;DHT22;7044;53.286;8.534;2024-02-23T13:18:03;8.90;99.90
13944;DHT22;7044;53.286;8.534;2024-02-23T13:20:30;8.90;99.90
13944;DHT22;7044;53.286;8.534;2024-02-23T13:22:57;8.90;99.90
13944;DHT22;7044;53.286;8.534;2024-02-23T13:25:24;9.00;99.90
13944;DHT22;7044;53.286;8.534;2024-02-23T13:27:51;8.90;99.90
13944;DHT22;7044;53.286;8.534;2024-02-23T13:30:19;8.90;99.90
13944;DHT22;7044;53.286;8.534;2024-02-23T13:32:46;8.90;99.90
13944;DHT22;7044;53.286;8.534;2024-02-23T13:35:13;8.90;99.90
13944;DHT22;7044;53.286;8.534;2024-02-23T13:37:41;8.90;99.90
13944;DHT22;7044;53.286;8.534;2024-02-23T13:40:09;8.90;99.90
13944;DHT22;7044;53.286;8.534;2024-02-23T13:42:36;8.90;99.90
13944;DHT22;7044;53.286;8.534;2024-02-23T13:45:05;9.00;99.90
13944;DHT22;7044;53.286;8.534;2024-02-23T13:47:34;9.30;99.90
13944;DHT22;7044;53.286;8.534;2024-02-23T13:50:01;9.20;99.90
13944;DHT22;7044;53.286;8.534;2024-02-23T13:52:29;9.20;99.90
13944;DHT22;7044;53.286;8.534;2024-02-23T13:54:56;9.10;99.90
13944;DHT22;7044;53.286;8.534;2024-02-23T13:57:23;9.10;99.90
13944;DHT22;7044;53.286;8.534;2024-02-23T13:59:50;9.10;99.90
13944;DHT22;7044;53.286;8.534;2024-02-23T14:02:23;9.10;99.90
13944;DHT22;7044;53.286;8.534;2024-02-23T14:04:52;9.00;99.90
13944;DHT22;7044;53.286;8.534;2024-02-23T14:07:20;9.00;99.90
13944;DHT22;7044;53.286;8.534;2024-02-23T14:09:46;8.90;99.90
13944;DHT22;7044;53.286;8.534;2024-02-23T14:12:13;8.90;99.90
13944;DHT22;7044;53.286;8.534;2024-02-23T14:14:40;8.90;99.90
13944;DHT22;7044;53.286;8.534;2024-02-23T14:17:07;8.90;99.90
13944;DHT22;7044;53.286;8.534;2024-02-23T14:19:34;9.00;99.90
13944;DHT22;7044;53.286;8.534;2024-02-23T14:22:02;8.90;99.90
13944;DHT22;7044;53.286;8.534;2024-02-23T14:24:29;8.90;99.90
13944;DHT22;7044;53.286;8.534;2024-02-23T14:26:56;8.90;99.90
13944;DHT22;7044;53.286;8.534;2024-02-23T14:29:23;8.80;99.90
13944;DHT22;7044;53.286;8.534;2024-02-23T14:31:50;8.80;99.90
13944;DHT22;7044;53.286;8.534;2024-02-23T14:34:17;8.80;99.90
13944;DHT22;7044;53.286;8.534;2024-02-23T14:36:45;8.90;99.90
13944;DHT22;7044;53.286;8.534;2024-02-23T14:39:13;8.80;99.90
13944;DHT22;7044;53.286;8.534;2024-02-23T14:41:40;8.80;99.90
13944;DHT22;7044;53.286;8.534;2024-02-23T14:44:08;8.70;99.90
13944;DHT22;7044;53.286;8.534;2024-02-23T14:46:35;8.80;99.90
13944;DHT22;7044;53.286;8.534;2024-02-23T14:49:01;8.70;99.90
13944;DHT22;7044;53.286;8.534;2024-02-23T14:51:29;8.70;99.90
13944;DHT22;7044;53.286;8.534;2024-02-23T14:53:56;8.60;99.90
13944;DHT22;7044;53.286;8.534;2024-02-23T14:56:24;8.60;99.90
13944;DHT22;7044;53.286;8.534;2024-02-23T14:58:51;8.60;99.90
13944;DHT22;7044;53.286;8.534;2024-02-23T15:01:18;8.60;99.90
13944;DHT22;7044;53.286;8.534;2024-02-23T15:03:45;8.60;99.90
13944;DHT22;7044;53.286;8.534;2024-02-23T15:06:13;8.60;99.90
13944;DHT22;7044;53.286;8.534;2024-02-23T15:08:39;8.50;99.90
13944;DHT22;7044;53.286;8.534;2024-02-23T15:11:06;8.40;99.90
13944;DHT22;7044;53.286;8.534;2024-02-23T15:13:35;8.40;99.90
13944;DHT22;7044;53.286;8.534;2024-02-23T15:16:02;8.30;99.90
13944;DHT22;7044;53.286;8.534;2024-02-23T15:18:29;8.40;99.90
13944;DHT22;7044;53.286;8.534;2024-02-23T15:20:56;8.40;99.90
13944;DHT22;7044;53.286;8.534;2024-02-23T15:23:23;8.40;99.90
13944;DHT22;7044;53.286;8.534;2024-02-23T15:25:50;8.40;99.90
13944;DHT22;7044;53.286;8.534;2024-02-23T15:28:17;8.40;99.90
13944;DHT22;7044;53.286;8.534;2024-02-23T15:30:49;7.40;99.90
13944;DHT22;7044;53.286;8.534;2024-02-23T15:33:17;8.40;99.90
13944;DHT22;7044;53.286;8.534;2024-02-23T15:35:44;8.40;99.90
13944;DHT22;7044;53.286;8.534;2024-02-23T15:38:11;8.40;99.90
13944;DHT22;7044;53.286;8.534;2024-02-23T15:40:37;8.40;99.90
13944;DHT22;7044;53.286;8.534;2024-02-23T15:43:04;8.50;99.90
13944;DHT22;7044;53.286;8.534;2024-02-23T15:45:31;8.40;99.90
13944;DHT22;7044;53.286;8.534;2024-02-23T15:47:59;8.40;99.90
13944;DHT22;7044;53.286;8.534;2024-02-23T15:50:26;8.40;99.90
13944;DHT22;7044;53.286;8.534;2024-02-23T15:52:54;8.60;99.90
13944;DHT22;7044;53.286;8.534;2024-02-23T15:55:21;8.40;99.90
13944;DHT22;7044;53.286;8.534;2024-02-23T15:57:48;8.40;99.90
13944;DHT22;7044;53.286;8.534;2024-02-23T16:00:15;8.40;99.90
13944;DHT22;7044;53.286;8.534;2024-02-23T16:02:42;8.40;99.90
13944;DHT22;7044;53.286;8.534;2024-02-23T16:05:10;8.40;99.90
13944;DHT22;7044;53.286;8.534;2024-02-23T16:07:37;8.50;99.90
13944;DHT22;7044;53.286;8.534;2024-02-23T16:10:05;8.40;99.90